createdAt,value
2022-12-05T00:01:29.241Z,92.04
2022-12-05T00:03:59.014Z,91.15
2022-12-05T00:06:27.985Z,91.67
2022-12-05T00:08:55.557Z,92.50
2022-12-05T00:11:26.172Z,91.45
2022-12-05T00:13:55.887Z,92.17
2022-12-05T00:16:25.225Z,91.34
2022-12-05T00:18:53.051Z,93.03
2022-12-05T00:21:22.816Z,93.71
2022-12-05T00:23:50.769Z,92.38
2022-12-05T00:26:18.274Z,94.84
2022-12-05T00:28:45.270Z,95.13
2022-12-05T00:31:16.456Z,96.70
2022-12-05T00:33:44.668Z,94.40
2022-12-05T00:36:17.658Z,92.24
2022-12-05T00:38:45.282Z,94.52
2022-12-05T00:41:18.388Z,96.12
2022-12-05T00:43:45.912Z,98.03
2022-12-05T00:46:16.496Z,96.29
2022-12-05T00:48:43.689Z,97.33
2022-12-05T00:51:15.324Z,95.96
2022-12-05T00:53:42.783Z,94.22
2022-12-05T00:56:13.398Z,93.07
2022-12-05T00:58:41.186Z,91.56
2022-12-05T01:01:15.588Z,90.90
2022-12-05T01:03:44.203Z,92.16
2022-12-05T01:06:12.171Z,94.25
2022-12-05T01:08:39.173Z,95.05
2022-12-05T01:11:07.673Z,92.88
2022-12-05T01:13:35.394Z,91.39
2022-12-05T01:16:02.701Z,90.96
2022-12-05T01:18:29.862Z,90.76
2022-12-05T01:20:57.402Z,90.67
2022-12-05T01:23:24.601Z,91.18
2022-12-05T01:25:53.045Z,90.01
2022-12-05T01:28:20.134Z,89.67
2022-12-05T01:30:48.768Z,89.20
2022-12-05T01:33:16.727Z,88.87
2022-12-05T01:35:44.323Z,89.05
2022-12-05T01:38:12.960Z,89.65
2022-12-05T01:40:40.521Z,89.73
2022-12-05T01:43:15.336Z,89.32
2022-12-05T01:45:44.729Z,97.08
2022-12-05T01:48:18.387Z,96.88
2022-12-05T01:50:46.421Z,94.88
2022-12-05T01:53:13.810Z,93.13
2022-12-05T01:55:40.862Z,90.91
2022-12-05T01:58:10.022Z,92.68
2022-12-05T02:00:41.677Z,93.72
2022-12-05T02:03:11.351Z,92.29
2022-12-05T02:05:39.598Z,90.65
2022-12-05T02:08:09.382Z,91.76
2022-12-05T02:10:40.770Z,92.18
2022-12-05T02:13:49.218Z,92.29
2022-12-05T02:16:34.395Z,90.85
2022-12-05T02:19:43.333Z,90.11
2022-12-05T02:22:23.318Z,89.10
2022-12-05T02:24:56.251Z,87.43
2022-12-05T02:27:32.004Z,92.60
2022-12-05T02:30:19.407Z,97.19
2022-12-05T02:32:49.074Z,99.36
2022-12-05T02:35:37.604Z,96.26
2022-12-05T02:38:17.516Z,92.72
2022-12-05T02:40:50.886Z,95.15
2022-12-05T02:43:22.932Z,93.44
2022-12-05T02:45:54.409Z,94.38
2022-12-05T02:48:22.891Z,93.50
2022-12-05T02:50:52.483Z,93.88
2022-12-05T02:53:21.578Z,92.82
2022-12-05T02:55:48.899Z,95.81
2022-12-05T02:58:23.229Z,99.05
2022-12-05T03:00:53.525Z,99.25
2022-12-05T03:03:23.448Z,99.48
2022-12-05T03:06:02.564Z,100.00
2022-12-05T03:08:45.124Z,97.78
2022-12-05T03:11:12.513Z,100.00
2022-12-05T03:13:45.159Z,100.00
2022-12-05T03:16:18.173Z,100.00
2022-12-05T03:18:51.110Z,100.00
2022-12-05T03:21:40.964Z,95.70
2022-12-05T03:24:14.325Z,96.90
2022-12-05T03:26:53.460Z,98.31
2022-12-05T03:29:32.721Z,97.31
2022-12-05T03:32:32.145Z,95.76
2022-12-05T03:35:09.432Z,96.23
2022-12-05T03:37:43.126Z,94.99
2022-12-05T03:40:37.200Z,94.21
2022-12-05T03:43:23.677Z,97.54
2022-12-05T03:46:03.746Z,99.44
2022-12-05T03:48:49.343Z,94.85
2022-12-05T03:51:20.739Z,92.45
2022-12-05T03:53:53.548Z,91.13
2022-12-05T03:56:28.069Z,92.45
2022-12-05T03:59:06.492Z,91.73
2022-12-05T04:01:36.339Z,91.59
2022-12-05T04:04:14.142Z,91.94
2022-12-05T04:06:43.935Z,91.53
2022-12-05T04:09:17.531Z,92.25
2022-12-05T04:11:51.140Z,94.06
2022-12-05T04:14:26.161Z,91.06
2022-12-05T04:17:10.131Z,92.08
2022-12-05T04:20:17.084Z,93.93
2022-12-05T04:22:45.187Z,93.33
2022-12-05T04:25:33.236Z,91.54
2022-12-05T04:28:06.410Z,92.27
2022-12-05T04:30:43.231Z,95.68
2022-12-05T04:33:30.155Z,92.22
2022-12-05T04:36:07.782Z,90.50
2022-12-05T04:38:53.342Z,92.62
2022-12-05T04:41:26.655Z,95.46
2022-12-05T04:43:59.094Z,94.06
2022-12-05T04:46:26.392Z,93.50
2022-12-05T04:48:59.187Z,93.10
2022-12-05T04:51:30.157Z,92.82
2022-12-05T04:54:04.604Z,94.03
2022-12-05T04:56:36.646Z,95.10
2022-12-05T04:59:04.804Z,94.35
2022-12-05T05:01:39.270Z,94.04
2022-12-05T05:04:08.187Z,93.94
2022-12-05T05:06:38.725Z,95.99
2022-12-05T05:09:05.752Z,100.00
2022-12-05T05:11:34.947Z,99.06
2022-12-05T05:14:02.939Z,98.50
2022-12-05T05:16:33.389Z,96.91
2022-12-05T05:19:00.812Z,96.68
2022-12-05T05:21:42.794Z,96.03
2022-12-05T05:24:11.132Z,94.55
2022-12-05T05:26:43.325Z,97.46
2022-12-05T05:29:11.408Z,96.84
2022-12-05T05:31:39.368Z,97.78
2022-12-05T05:34:09.673Z,96.86
2022-12-05T05:36:37.599Z,98.67
2022-12-05T05:39:06.949Z,97.62
2022-12-05T05:41:35.856Z,96.06
2022-12-05T05:44:03.884Z,93.48
2022-12-05T05:46:34.670Z,92.54
2022-12-05T05:49:02.257Z,93.92
2022-12-05T05:51:30.433Z,93.45
2022-12-05T05:53:58.610Z,92.23
2022-12-05T05:56:25.948Z,91.93
2022-12-05T05:58:58.234Z,95.98
2022-12-05T06:01:25.229Z,94.59
2022-12-05T06:03:52.260Z,91.10
2022-12-05T06:06:20.678Z,90.58
2022-12-05T06:08:48.192Z,90.39
2022-12-05T06:11:25.372Z,90.08
2022-12-05T06:13:58.145Z,89.70
2022-12-05T06:16:25.658Z,89.43
2022-12-05T06:18:53.511Z,93.58
2022-12-05T06:21:20.976Z,92.48
2022-12-05T06:23:48.302Z,91.17
2022-12-05T06:26:19.018Z,92.28
2022-12-05T06:28:46.782Z,90.71
2022-12-05T06:31:19.403Z,90.37
2022-12-05T06:33:47.252Z,89.41
2022-12-05T06:36:16.601Z,90.70
2022-12-05T06:38:43.979Z,90.55
2022-12-05T06:41:15.403Z,89.69
2022-12-05T06:43:42.596Z,91.24
2022-12-05T06:46:12.604Z,91.00
2022-12-05T06:48:39.646Z,92.97
2022-12-05T06:51:12.441Z,91.99
2022-12-05T06:53:39.996Z,91.26
2022-12-05T06:56:13.870Z,93.33
2022-12-05T06:58:41.962Z,90.45
2022-12-05T07:01:36.156Z,90.20
2022-12-05T07:04:04.393Z,91.75
2022-12-05T07:06:31.714Z,92.28
2022-12-05T07:08:58.779Z,92.75
2022-12-05T07:11:26.216Z,92.99
2022-12-05T07:13:53.221Z,90.21
2022-12-05T07:16:20.153Z,89.77
2022-12-05T07:18:47.168Z,90.42
2022-12-05T07:21:16.425Z,94.79
2022-12-05T07:23:45.984Z,97.49
2022-12-05T07:26:15.279Z,94.77
2022-12-05T07:28:42.655Z,98.47
2022-12-05T07:31:12.207Z,97.45
2022-12-05T07:33:39.497Z,95.21
2022-12-05T07:36:10.203Z,94.68
2022-12-05T07:38:37.589Z,91.87
2022-12-05T07:41:14.483Z,91.00
2022-12-05T07:43:42.206Z,91.17
2022-12-05T07:46:11.967Z,90.17
2022-12-05T07:48:39.904Z,88.24
2022-12-05T07:51:08.700Z,85.49
2022-12-05T07:53:36.742Z,86.62
2022-12-05T07:56:06.028Z,88.68
2022-12-05T07:58:34.320Z,86.78
2022-12-05T08:01:28.788Z,84.97
2022-12-05T08:03:58.448Z,86.53
2022-12-05T08:06:30.711Z,86.65
2022-12-05T08:08:58.353Z,86.87
2022-12-05T08:11:31.022Z,85.96
2022-12-05T08:13:58.746Z,89.04
2022-12-05T08:16:28.589Z,89.97
2022-12-05T08:18:56.923Z,88.69
2022-12-05T08:21:25.437Z,88.35
2022-12-05T08:23:53.125Z,88.20
2022-12-05T08:26:26.307Z,88.33
2022-12-05T08:28:56.321Z,90.19
2022-12-05T08:31:24.820Z,89.80
2022-12-05T08:33:57.317Z,87.58
2022-12-05T08:36:27.312Z,85.58
2022-12-05T08:38:59.068Z,87.79
2022-12-05T08:41:28.871Z,86.43
2022-12-05T08:43:57.280Z,87.31
2022-12-05T08:46:24.485Z,85.20
2022-12-05T08:48:51.947Z,86.57
2022-12-05T08:51:18.837Z,87.09
2022-12-05T08:53:46.005Z,86.18
2022-12-05T08:56:13.296Z,88.77
2022-12-05T08:58:40.736Z,88.57
2022-12-05T09:01:08.837Z,88.84
2022-12-05T09:03:35.838Z,87.46
2022-12-05T09:06:10.495Z,85.85
2022-12-05T09:08:38.600Z,87.09
2022-12-05T09:11:07.206Z,88.58
2022-12-05T09:13:34.229Z,89.51
2022-12-05T09:16:06.871Z,87.35
2022-12-05T09:18:34.366Z,85.20
2022-12-05T09:21:09.548Z,83.74
2022-12-05T09:23:38.113Z,84.99
2022-12-05T09:26:06.846Z,85.36
2022-12-05T09:28:34.422Z,83.61
2022-12-05T09:31:04.549Z,84.25
2022-12-05T09:33:34.108Z,85.78
2022-12-05T09:36:08.467Z,84.86
2022-12-05T09:38:35.726Z,83.26
2022-12-05T09:41:45.560Z,84.21
2022-12-05T09:44:45.527Z,81.32
2022-12-05T09:47:27.688Z,80.97
2022-12-05T09:50:43.892Z,79.20
2022-12-05T09:53:22.590Z,79.80
2022-12-05T09:55:57.434Z,83.76
2022-12-05T09:58:33.216Z,82.90
2022-12-05T10:01:38.161Z,84.75
2022-12-05T10:04:30.365Z,81.89
2022-12-05T10:07:07.397Z,81.19
2022-12-05T10:09:51.420Z,81.59
2022-12-05T10:12:36.709Z,81.13
2022-12-05T10:16:00.673Z,79.91
2022-12-05T10:18:34.066Z,82.23
2022-12-05T10:21:12.304Z,82.86
2022-12-05T10:23:57.976Z,83.44
2022-12-05T10:26:37.222Z,82.94
2022-12-05T10:29:31.938Z,81.04
2022-12-05T10:32:12.132Z,81.29
2022-12-05T10:34:41.806Z,81.73
2022-12-05T10:37:14.429Z,81.55
2022-12-05T10:39:41.926Z,81.33
2022-12-05T10:42:15.327Z,81.17
2022-12-05T10:44:42.782Z,78.46
2022-12-05T10:47:10.576Z,78.65
2022-12-05T10:49:39.039Z,81.87
2022-12-05T10:52:06.768Z,79.20
2022-12-05T10:54:42.303Z,81.74
2022-12-05T10:57:24.651Z,79.62
2022-12-05T10:59:52.479Z,77.59
2022-12-05T11:02:27.590Z,79.54
2022-12-05T11:04:55.704Z,79.28
2022-12-05T11:07:31.828Z,78.90
2022-12-05T11:10:01.034Z,77.27
2022-12-05T11:12:39.100Z,75.70
2022-12-05T11:15:22.610Z,75.65
2022-12-05T11:17:51.447Z,78.06
2022-12-05T11:20:18.257Z,77.41
2022-12-05T11:22:48.898Z,75.25
2022-12-05T11:25:37.513Z,78.01
2022-12-05T11:28:16.396Z,75.70
2022-12-05T11:31:06.257Z,73.90
2022-12-05T11:33:35.164Z,76.27
2022-12-05T11:36:10.540Z,79.07
2022-12-05T11:38:37.312Z,81.21
2022-12-05T11:41:22.438Z,81.30
2022-12-05T11:43:55.596Z,81.51
2022-12-05T11:46:34.464Z,83.34
2022-12-05T11:49:13.371Z,82.95
2022-12-05T11:51:42.084Z,80.27
2022-12-05T11:55:04.057Z,79.83
2022-12-05T11:57:22.373Z,81.03
2022-12-05T12:00:14.518Z,78.40
2022-12-05T12:03:00.246Z,80.22
2022-12-05T12:05:36.056Z,77.60
2022-12-05T12:08:19.205Z,76.99
2022-12-05T12:10:59.648Z,79.18
2022-12-05T12:13:38.860Z,80.33
2022-12-05T12:16:34.024Z,80.81
2022-12-05T12:19:32.704Z,80.60
2022-12-05T12:22:02.260Z,78.74
2022-12-05T12:25:12.888Z,77.86
2022-12-05T12:27:51.550Z,78.51
2022-12-05T12:30:46.900Z,77.88
2022-12-05T12:33:39.693Z,75.49
2022-12-05T12:36:25.929Z,77.77
2022-12-05T12:38:58.578Z,79.04
2022-12-05T12:41:53.289Z,77.92
2022-12-05T12:44:29.202Z,76.57
2022-12-05T12:47:04.579Z,75.16
2022-12-05T12:49:43.301Z,76.42
2022-12-05T12:52:16.274Z,78.01
2022-12-05T12:55:04.400Z,80.70
2022-12-05T12:57:53.235Z,80.13
2022-12-05T13:01:05.444Z,78.41
2022-12-05T13:03:49.910Z,76.45
2022-12-05T13:06:34.795Z,76.89
2022-12-05T13:09:22.230Z,82.54
2022-12-05T13:11:50.963Z,81.64
2022-12-05T13:14:23.531Z,81.13
2022-12-05T13:16:54.348Z,79.78
2022-12-05T13:19:27.822Z,80.51
2022-12-05T13:21:59.550Z,78.91
2022-12-05T13:24:29.138Z,77.38
2022-12-05T13:27:00.748Z,81.31
2022-12-05T13:29:35.674Z,82.51
2022-12-05T13:32:04.312Z,81.16
2022-12-05T13:34:46.102Z,80.60
2022-12-05T13:37:46.447Z,79.49
2022-12-05T13:41:09.378Z,83.09
2022-12-05T13:43:47.412Z,84.93
2022-12-05T13:46:32.555Z,84.29
2022-12-05T13:49:17.335Z,83.59
2022-12-05T13:51:46.286Z,81.39
2022-12-05T13:54:22.773Z,82.00
2022-12-05T13:56:59.079Z,81.12
2022-12-05T14:00:00.684Z,80.03
2022-12-05T14:02:46.291Z,83.92
2022-12-05T14:05:19.190Z,84.10
2022-12-05T14:07:49.812Z,83.17
2022-12-05T14:10:28.653Z,81.11
2022-12-05T14:13:01.159Z,81.90
2022-12-05T14:15:34.270Z,86.55
2022-12-05T14:18:23.121Z,88.94
2022-12-05T14:21:00.454Z,86.84
2022-12-05T14:23:52.897Z,87.55
2022-12-05T14:26:41.762Z,85.10
2022-12-05T14:29:17.499Z,83.89
2022-12-05T14:32:06.297Z,84.35
2022-12-05T14:34:46.777Z,85.69
2022-12-05T14:37:16.442Z,84.16
2022-12-05T14:39:47.870Z,83.94
2022-12-05T14:42:23.521Z,85.23
2022-12-05T14:44:54.222Z,85.80
2022-12-05T14:47:29.134Z,85.12
2022-12-05T14:50:04.947Z,86.57
2022-12-05T14:52:34.114Z,85.02
2022-12-05T14:55:09.092Z,86.09
2022-12-05T14:57:45.869Z,85.32
2022-12-05T15:00:21.575Z,84.79
2022-12-05T15:02:51.555Z,85.34
2022-12-05T15:05:26.608Z,86.36
2022-12-05T15:07:57.063Z,84.66
2022-12-05T15:10:34.865Z,82.96
2022-12-05T15:13:07.916Z,82.31
2022-12-05T15:15:41.956Z,82.64
2022-12-05T15:18:31.452Z,84.77
2022-12-05T15:21:32.366Z,84.13
2022-12-05T15:24:02.847Z,84.69
2022-12-05T15:26:49.651Z,83.36
2022-12-05T15:29:29.290Z,82.56
2022-12-05T15:31:59.182Z,81.20
2022-12-05T15:34:29.072Z,81.87
2022-12-05T15:37:25.132Z,82.01
2022-12-05T15:39:54.047Z,81.55
2022-12-05T15:42:32.030Z,82.54
2022-12-05T15:45:14.723Z,84.68
2022-12-05T15:47:43.744Z,86.12
2022-12-05T15:50:41.463Z,84.86
2022-12-05T15:53:20.319Z,83.84
2022-12-05T15:56:00.488Z,83.12
2022-12-05T15:58:49.033Z,83.57
2022-12-05T16:01:19.193Z,82.69
2022-12-05T16:04:08.012Z,84.15
2022-12-05T16:06:39.239Z,85.15
2022-12-05T16:09:15.155Z,84.20
2022-12-05T16:11:52.096Z,84.95
2022-12-05T16:14:50.936Z,86.53
2022-12-05T16:17:14.171Z,86.44
2022-12-05T16:19:41.290Z,84.75
2022-12-05T16:22:32.797Z,85.13
2022-12-05T16:25:01.784Z,85.17
2022-12-05T16:27:39.608Z,84.95
2022-12-05T16:30:09.210Z,84.58
2022-12-05T16:32:36.987Z,83.78
2022-12-05T16:35:05.029Z,84.84
2022-12-05T16:37:32.058Z,84.36
2022-12-05T16:39:59.317Z,83.83
2022-12-05T16:42:28.067Z,83.26
2022-12-05T16:45:03.279Z,83.94
2022-12-05T16:47:42.133Z,83.00
2022-12-05T16:50:30.256Z,86.00
2022-12-05T16:53:09.198Z,84.35
2022-12-05T16:55:40.447Z,87.66
2022-12-05T16:58:13.952Z,88.30
2022-12-05T17:00:40.890Z,88.19
2022-12-05T17:03:33.305Z,89.15
2022-12-05T17:06:00.293Z,89.10
2022-12-05T17:08:27.347Z,90.86
2022-12-05T17:10:54.313Z,90.80
2022-12-05T17:13:21.571Z,89.97
2022-12-05T17:15:48.704Z,87.79
2022-12-05T17:18:20.431Z,87.88
2022-12-05T17:20:51.936Z,89.63
2022-12-05T17:23:19.510Z,91.76
2022-12-05T17:25:50.498Z,95.28
2022-12-05T17:28:17.638Z,94.12
2022-12-05T17:30:44.557Z,94.51
2022-12-05T17:33:14.456Z,94.64
2022-12-05T17:35:41.810Z,94.84
2022-12-05T17:38:10.870Z,95.82
2022-12-05T17:40:38.802Z,91.94
2022-12-05T17:43:06.372Z,91.47
2022-12-05T17:45:33.707Z,93.55
2022-12-05T17:48:00.670Z,94.55
2022-12-05T17:50:30.208Z,95.19
2022-12-05T17:53:02.835Z,93.43
2022-12-05T17:55:32.839Z,94.59
2022-12-05T17:57:59.694Z,92.20
2022-12-05T18:00:27.109Z,91.80
2022-12-05T18:02:54.058Z,90.84
2022-12-05T18:05:21.076Z,92.09
2022-12-05T18:07:48.748Z,90.03
2022-12-05T18:10:22.114Z,87.78
2022-12-05T18:12:49.825Z,85.99
2022-12-05T18:15:17.100Z,85.22
2022-12-05T18:17:44.444Z,86.98
2022-12-05T18:20:14.046Z,88.09
2022-12-05T18:22:41.590Z,88.47
2022-12-05T18:25:09.769Z,90.11
2022-12-05T18:27:37.888Z,91.80
2022-12-05T18:30:06.034Z,89.71
2022-12-05T18:32:33.668Z,89.10
2022-12-05T18:35:02.424Z,89.22
2022-12-05T18:37:30.330Z,89.64
2022-12-05T18:39:57.194Z,89.32
2022-12-05T18:42:24.183Z,87.97
2022-12-05T18:44:51.150Z,86.96
2022-12-05T18:47:18.146Z,86.93
2022-12-05T18:49:45.085Z,89.20
2022-12-05T18:52:12.303Z,88.99
2022-12-05T18:54:39.647Z,86.61
2022-12-05T18:57:07.126Z,85.55
2022-12-05T18:59:34.339Z,85.58
2022-12-05T19:02:01.786Z,86.54
2022-12-05T19:04:29.257Z,87.53
2022-12-05T19:06:58.974Z,87.02
2022-12-05T19:09:32.402Z,88.26
2022-12-05T19:12:00.761Z,90.91
2022-12-05T19:14:32.658Z,89.37
2022-12-05T19:17:00.551Z,89.96
2022-12-05T19:19:28.459Z,89.43
2022-12-05T19:21:55.904Z,89.47
2022-12-05T19:24:22.791Z,88.44
2022-12-05T19:26:49.751Z,88.91
2022-12-05T19:29:17.150Z,88.35
2022-12-05T19:31:45.289Z,89.73
2022-12-05T19:34:12.731Z,89.25
2022-12-05T19:36:42.108Z,87.94
2022-12-05T19:39:16.387Z,87.76
2022-12-05T19:41:44.061Z,89.51
2022-12-05T19:44:11.393Z,88.33
2022-12-05T19:46:38.635Z,89.55
2022-12-05T19:49:10.998Z,88.51
2022-12-05T19:51:38.406Z,88.17
2022-12-05T19:54:07.433Z,89.28
2022-12-05T19:56:35.849Z,88.42
2022-12-05T19:59:03.388Z,88.26
2022-12-05T20:01:32.617Z,90.26
2022-12-05T20:04:02.452Z,91.13
2022-12-05T20:06:35.820Z,89.32
2022-12-05T20:09:04.276Z,91.25
2022-12-05T20:11:31.793Z,89.01
2022-12-05T20:14:00.684Z,88.50
2022-12-05T20:16:28.962Z,88.42
2022-12-05T20:18:59.425Z,87.51
2022-12-05T20:21:30.020Z,90.12
2022-12-05T20:23:59.666Z,93.97
2022-12-05T20:26:29.791Z,94.63
2022-12-05T20:29:01.049Z,91.76
2022-12-05T20:31:36.933Z,88.97
2022-12-05T20:34:05.692Z,89.06
2022-12-05T20:36:35.043Z,91.00
2022-12-05T20:39:06.937Z,89.50
2022-12-05T20:41:34.826Z,88.50
2022-12-05T20:44:06.701Z,87.13
2022-12-05T20:46:35.116Z,87.12
2022-12-05T20:49:02.296Z,86.29
2022-12-05T20:51:31.225Z,87.80
2022-12-05T20:53:59.797Z,89.91
2022-12-05T20:56:29.584Z,91.41
2022-12-05T20:58:58.605Z,92.28
2022-12-05T21:01:27.951Z,93.36
2022-12-05T21:03:55.707Z,94.00
2022-12-05T21:06:28.830Z,90.55
2022-12-05T21:08:57.138Z,89.01
2022-12-05T21:11:25.067Z,87.32
2022-12-05T21:13:54.553Z,88.55
2022-12-05T21:16:23.486Z,89.38
2022-12-05T21:18:51.566Z,89.58
2022-12-05T21:21:29.031Z,89.41
2022-12-05T21:24:01.320Z,90.07
2022-12-05T21:26:30.569Z,91.21
2022-12-05T21:28:58.986Z,90.70
2022-12-05T21:31:29.403Z,90.96
2022-12-05T21:34:00.055Z,91.02
2022-12-05T21:36:30.456Z,91.73
2022-12-05T21:38:57.737Z,90.37
2022-12-05T21:41:25.616Z,90.79
2022-12-05T21:43:55.294Z,89.86
2022-12-05T21:46:26.263Z,87.97
2022-12-05T21:48:53.663Z,88.92
2022-12-05T21:51:21.251Z,88.49
2022-12-05T21:53:48.264Z,86.49
2022-12-05T21:56:17.717Z,87.39
2022-12-05T21:58:46.095Z,87.14
2022-12-05T22:01:18.659Z,87.64
2022-12-05T22:03:46.610Z,88.57
2022-12-05T22:06:15.509Z,90.40
2022-12-05T22:08:43.045Z,90.63
2022-12-05T22:11:12.691Z,89.15
2022-12-05T22:13:40.029Z,89.18
2022-12-05T22:16:08.941Z,89.30
2022-12-05T22:18:36.478Z,89.16
2022-12-05T22:21:13.724Z,88.21
2022-12-05T22:23:40.736Z,87.09
2022-12-05T22:26:17.261Z,87.08
2022-12-05T22:28:44.709Z,87.30
2022-12-05T22:31:14.812Z,87.11
2022-12-05T22:33:42.043Z,86.12
2022-12-05T22:36:11.038Z,85.89
2022-12-05T22:38:40.467Z,85.25
2022-12-05T22:41:16.471Z,85.49
2022-12-05T22:43:45.693Z,85.20
2022-12-05T22:46:17.868Z,84.31
2022-12-05T22:48:46.083Z,84.99
2022-12-05T22:51:14.549Z,84.58
2022-12-05T22:53:41.972Z,84.76
2022-12-05T22:56:15.430Z,83.66
2022-12-05T22:58:43.305Z,83.33
2022-12-05T23:01:18.882Z,83.17
2022-12-05T23:03:47.507Z,83.57
2022-12-05T23:06:17.205Z,84.50
2022-12-05T23:08:48.009Z,84.00
2022-12-05T23:11:18.715Z,83.51
2022-12-05T23:13:46.550Z,84.53
2022-12-05T23:16:16.167Z,86.17
2022-12-05T23:18:49.719Z,87.44
2022-12-05T23:21:22.402Z,87.74
2022-12-05T23:23:51.088Z,87.25
2022-12-05T23:26:19.295Z,87.66
2022-12-05T23:28:46.318Z,87.50
2022-12-05T23:31:14.016Z,87.71
2022-12-05T23:33:41.373Z,86.16
2022-12-05T23:36:09.927Z,85.79
2022-12-05T23:38:38.192Z,86.00
2022-12-05T23:41:06.613Z,88.10
2022-12-05T23:43:35.320Z,89.95
2022-12-05T23:46:04.355Z,90.25
2022-12-05T23:48:31.463Z,90.52
2022-12-05T23:51:15.924Z,91.92
2022-12-05T23:53:44.712Z,91.31
2022-12-05T23:56:17.460Z,91.77
2022-12-05T23:58:45.574Z,90.18
